KGCN/GCN METAR and TAF weather

Enter ICAO airport designator
Station Type Date Time Source
KGCN METAR 2020/07/15 05:54 UTC NOAA

KGCN 150554Z AUTO 00000KT 10SM CLR 13/01 A3024 RMK AO2 SLP132 T01280006 10300 20128 51011


Station Type Date Time Source
KGCN Decoded METAR 2020/07/15 05:54 UTC NOAA

GRAND CANYON NATL PARK AIRPORT , AZ, United States (KGCN) 35-57N 112-09W 2016M
Jul 15, 2020 - 01:54 AM EDT / 2020.07.15 0554 UTC
Wind: Calm:0
Visibility: 10 mile(s):0
Sky conditions: clear
Temperature: 55.0 F (12.8 C)
Dew Point: 33.1 F (0.6 C)
Relative Humidity: 43%
Pressure (altimeter): 30.24 in. Hg (1024 hPa)
Pressure tendency: 0.03 inches (1.1 hPa) higher than three hours ago
ob: KGCN 150554Z AUTO 00000KT 10SM CLR 13/01 A3024 RMK AO2 SLP132 T01280006 10300 20128 51011
cycle: 6

Station Type Date Time Source
KGCN TAF 2020/07/15 06:22 UTC NOAA

TAF KGCN 150520Z 1506/1606 22005KT P6SM SKC
FM151800 23010G15KT P6SM SCT090
FM160300 VRB05KT P6SM FEW090

Example: see airport list